Time;durP1;ratioP1;P1;durP2;ratioP2;P2;SDS_P1;SDS_P2;PMS_P1;PMS_P2;Temp;Humidity;BMP_temperature;BMP_pressure;BME280_temperature;BME280_humidity;BME280_pressure;Samples;Min_cycle;Max_cycle;Signal;HPM_P1;HPM_P2
2022/03/14 00:08:24;;;;;;;99.00;40.30;;;;;;;-0.28;49.83;99654.45;432518;1270;108324;-43
2022/03/14 00:18:34;;;;;;;87.40;39.20;;;;;;;-0.38;50.09;99664.52;432431;1270;97913;-42
2022/03/14 00:38:48;;;;;;;108.70;43.10;;;;;;;-0.63;50.91;99673.00;432461;1270;108284;-41
2022/03/14 00:59:02;;;;;;;110.40;38.20;;;;;;;-0.99;51.70;99671.74;432522;1270;111802;-41
2022/03/14 01:09:11;;;;;;;99.20;43.70;;;;;;;-1.07;51.97;99675.92;432475;1270;108369;-40
2022/03/14 01:19:19;;;;;;;105.30;40.30;;;;;;;-1.13;52.24;99676.23;432521;1270;97910;-41
2022/03/14 01:29:25;;;;;;;95.80;37.50;;;;;;;-1.22;52.57;99679.27;432576;1270;111073;-44
2022/03/14 01:39:32;;;;;;;85.40;36.60;;;;;;;-1.25;53.00;99684.63;432693;1270;108867;-41
2022/03/14 01:49:40;;;;;;;91.10;39.00;;;;;;;-1.26;53.16;99688.75;432619;1270;97542;-41
2022/03/14 01:59:48;;;;;;;86.40;35.80;;;;;;;-1.33;53.49;99691.04;432417;1270;111169;-41
2022/03/14 02:09:55;;;;;;;78.40;33.00;;;;;;;-1.43;53.88;99702.30;432639;1270;108987;-41
2022/03/14 02:20:02;;;;;;;98.20;42.60;;;;;;;-1.49;54.08;99715.39;432345;1270;97510;-40
2022/03/14 02:30:11;;;;;;;89.90;41.10;;;;;;;-1.59;54.49;99720.71;433300;1259;110999;-43
2022/03/14 02:40:18;;;;;;;89.30;38.20;;;;;;;-1.74;54.63;99731.13;432568;1271;107316;-42
2022/03/14 02:50:26;;;;;;;82.30;38.00;;;;;;;-1.94;55.14;99728.94;432572;1270;96658;-41
2022/03/14 03:00:32;;;;;;;84.30;38.50;;;;;;;-2.15;55.47;99731.45;432424;1270;111117;-41
2022/03/14 03:10:41;;;;;;;66.70;35.90;;;;;;;-2.24;55.82;99740.67;432686;1269;108895;-40
2022/03/14 03:20:48;;;;;;;69.70;38.60;;;;;;;-2.05;56.12;99743.45;432463;1269;97928;-41
2022/03/14 03:30:55;;;;;;;82.50;38.30;;;;;;;-1.85;56.31;99745.81;432521;1269;111059;-41
2022/03/14 03:41:03;;;;;;;103.40;43.90;;;;;;;-1.94;56.52;99753.45;432605;1270;108826;-41
2022/03/14 03:51:10;;;;;;;105.50;46.90;;;;;;;-2.12;56.43;99757.36;432466;1269;98264;-41
2022/03/14 04:01:21;;;;;;;99.20;44.10;;;;;;;-2.36;56.60;99760.27;432613;1270;111185;-41
2022/03/14 04:11:28;;;;;;;88.20;40.90;;;;;;;-2.69;57.16;99769.68;432433;1270;108608;-41
2022/03/14 04:21:36;;;;;;;83.60;38.40;;;;;;;-2.90;57.46;99776.86;432325;1269;97997;-41
2022/03/14 04:31:43;;;;;;;90.10;38.40;;;;;;;-3.08;57.89;99781.52;432425;1270;110037;-41
2022/03/14 04:41:51;;;;;;;93.50;39.70;;;;;;;-3.17;58.16;99785.40;432574;1270;108727;-39
2022/03/14 04:51:59;;;;;;;93.10;39.00;;;;;;;-3.11;58.44;99791.03;432557;1270;97925;-41
2022/03/14 05:02:06;;;;;;;94.60;39.90;;;;;;;-3.24;58.49;99789.61;432633;1270;108892;-40
2022/03/14 05:12:13;;;;;;;108.20;44.60;;;;;;;-3.31;58.74;99790.79;432695;1269;97783;-40
2022/03/14 05:22:21;;;;;;;96.00;40.90;;;;;;;-3.17;59.23;99797.11;432520;1270;111673;-40
2022/03/14 05:32:28;;;;;;;100.40;42.80;;;;;;;-2.98;59.32;99801.27;432497;1270;109958;-41
2022/03/14 05:52:42;;;;;;;77.80;43.30;;;;;;;-1.30;59.25;99803.73;432611;1270;111059;-40
2022/03/14 06:02:51;;;;;;;63.00;34.60;;;;;;;-0.51;58.78;99809.20;432409;1270;108792;-40
2022/03/14 06:12:58;;;;;;;86.70;45.00;;;;;;;1.11;58.92;99815.05;432630;1269;97875;-42
2022/03/14 06:23:06;;;;;;;93.50;48.50;;;;;;;2.46;57.50;99824.42;432441;1270;110817;-40
2022/03/14 06:33:13;;;;;;;114.40;49.40;;;;;;;3.32;56.58;99829.94;432360;1270;108707;-42
2022/03/14 06:43:21;;;;;;;96.70;49.10;;;;;;;4.27;55.55;99837.98;432529;1270;108903;-43
2022/03/14 06:53:29;;;;;;;100.40;48.20;;;;;;;4.99;54.46;99841.23;432464;1270;97921;-42
2022/03/14 07:03:35;;;;;;;119.50;57.60;;;;;;;5.51;53.42;99842.85;432531;1270;97968;-42
2022/03/14 07:13:43;;;;;;;88.00;48.00;;;;;;;5.44;52.41;99847.48;432489;1270;111269;-42
2022/03/14 07:23:50;;;;;;;92.50;43.50;;;;;;;5.47;52.01;99855.23;432722;1270;109120;-43
2022/03/14 07:33:57;;;;;;;92.90;44.20;;;;;;;5.79;51.26;99854.70;432502;1270;108796;-41
2022/03/14 07:44:05;;;;;;;85.30;41.70;;;;;;;6.11;50.47;99860.80;432554;1269;96672;-41
2022/03/14 07:54:12;;;;;;;86.90;42.60;;;;;;;6.48;49.49;99862.23;432641;1270;111345;-40
2022/03/14 08:04:19;;;;;;;90.00;44.30;;;;;;;6.81;48.35;99869.16;432693;1269;107796;-43
2022/03/14 08:14:27;;;;;;;86.50;41.30;;;;;;;7.61;47.96;99868.96;432518;1269;108846;-39
2022/03/14 08:24:34;;;;;;;81.30;43.60;;;;;;;8.09;45.66;99863.27;432653;1269;98601;-42
2022/03/14 08:34:42;;;;;;;67.50;34.80;;;;;;;8.49;45.21;99864.23;432619;1270;111117;-40
2022/03/14 08:44:49;;;;;;;60.70;31.00;;;;;;;8.97;44.48;99870.44;432503;1269;107627;-42
2022/03/14 08:54:58;;;;;;;54.50;27.20;;;;;;;9.51;43.19;99861.14;432445;1270;109296;-41
2022/03/14 09:05:06;;;;;;;54.20;30.30;;;;;;;9.85;40.92;99870.22;432025;1270;492762;-41
2022/03/14 09:15:14;;;;;;;51.50;29.20;;;;;;;9.92;40.60;99871.96;432686;1270;108799;-41
2022/03/14 09:25:23;;;;;;;44.20;23.60;;;;;;;10.26;40.08;99870.56;432537;1269;97910;-41
2022/03/14 09:35:30;;;;;;;49.80;27.50;;;;;;;10.60;38.70;99870.65;432543;1267;96645;-40
2022/03/14 09:45:36;;;;;;;45.50;22.60;;;;;;;10.66;37.88;99858.30;432567;1270;111043;-42
2022/03/14 09:55:46;;;;;;;28.00;15.50;;;;;;;10.94;36.95;99852.48;432344;1270;109325;-42
2022/03/14 10:16:00;;;;;;;17.80;10.80;;;;;;;11.60;33.74;99841.23;432510;1270;109717;-42
2022/03/14 10:26:07;;;;;;;20.30;11.80;;;;;;;11.81;33.62;99837.61;432491;1267;97993;-41
2022/03/14 10:36:14;;;;;;;19.10;11.00;;;;;;;12.07;32.82;99827.48;432614;1268;112471;-41
2022/03/14 10:46:28;;;;;;;20.30;9.70;;;;;;;11.93;30.57;99833.40;432390;1269;108993;-41
2022/03/14 10:56:34;;;;;;;18.90;10.60;;;;;;;12.08;31.30;99825.06;432604;1269;98858;-43
2022/03/14 11:06:41;;;;;;;20.30;12.40;;;;;;;12.17;29.64;99814.65;432533;1270;108493;-42
2022/03/14 11:16:48;;;;;;;15.50;8.70;;;;;;;12.16;30.03;99811.69;432562;1270;99254;-44
2022/03/14 11:26:55;;;;;;;15.60;8.80;;;;;;;12.54;29.47;99806.18;432617;1269;112380;-44
2022/03/14 11:37:04;;;;;;;18.80;10.20;;;;;;;12.52;29.48;99796.84;432601;1270;109084;-40
2022/03/14 11:47:14;;;;;;;16.80;10.10;;;;;;;12.71;30.32;99785.45;432519;1269;99139;-42
2022/03/14 12:07:46;;;;;;;18.70;10.50;;;;;;;12.70;30.13;99767.01;432339;1270;98390;-40
2022/03/14 12:17:54;;;;;;;23.00;13.00;;;;;;;12.68;29.79;99766.38;432529;1269;112464;-40
2022/03/14 12:28:34;;;;;;;21.20;12.40;;;;;;;12.65;28.94;99760.32;432526;1271;108790;-41
2022/03/14 12:38:41;;;;;;;26.30;13.20;;;;;;;12.60;27.83;99758.80;432746;1270;99251;-44
2022/03/14 12:48:51;;;;;;;24.20;12.90;;;;;;;12.52;27.50;99755.41;432649;1270;109095;-41
2022/03/14 12:59:07;;;;;;;21.90;12.20;;;;;;;12.60;28.68;99755.73;432524;1270;99244;-41
2022/03/14 13:09:14;;;;;;;22.80;12.10;;;;;;;12.64;28.38;99748.65;432520;1270;112519;-40
2022/03/14 13:29:32;;;;;;;;;;;;;;;12.71;28.78;99757.28;432548;1270;98034;-43
2022/03/14 13:49:47;;;;;;;19.80;13.00;;;;;;;12.58;28.75;99767.05;432793;1270;98038;-44
2022/03/14 13:59:55;;;;;;;55.10;16.10;;;;;;;12.50;29.24;99772.56;432315;1270;112496;-41
2022/03/14 14:10:10;;;;;;;24.00;11.80;;;;;;;12.47;29.04;99769.86;432438;1270;108302;-40
2022/03/14 14:20:18;;;;;;;14.30;8.10;;;;;;;12.51;28.66;99764.24;432536;1270;99264;-41
2022/03/14 14:30:26;;;;;;;14.60;8.70;;;;;;;12.50;27.45;99768.09;432665;1270;108842;-42
2022/03/14 14:50:46;;;;;;;19.90;10.70;;;;;;;12.40;27.51;99761.75;432644;1270;112550;-41
2022/03/14 15:00:55;;;;;;;19.40;11.40;;;;;;;12.25;27.30;99755.99;432536;1270;109318;-45
2022/03/14 15:11:02;;;;;;;15.40;10.90;;;;;;;12.17;26.96;99755.48;432728;1270;98883;-44
2022/03/14 15:21:09;;;;;;;24.70;11.30;;;;;;;12.01;27.37;99757.80;432554;1270;108797;-41
2022/03/14 15:31:17;;;;;;;26.20;12.20;;;;;;;11.86;26.94;99754.89;432682;1271;98814;-41
2022/03/14 15:41:23;;;;;;;19.80;10.00;;;;;;;11.65;27.76;99750.85;432657;1270;112239;-41
2022/03/14 16:01:36;;;;;;;24.40;12.10;;;;;;;11.23;28.03;99747.29;432702;1270;98037;-43
2022/03/14 16:11:44;;;;;;;25.30;14.20;;;;;;;10.97;28.54;99755.92;432697;1270;108927;-39
2022/03/14 16:21:51;;;;;;;24.20;15.40;;;;;;;10.70;28.96;99763.96;432667;1270;98861;-43
2022/03/14 16:31:59;;;;;;;24.70;16.20;;;;;;;10.43;29.14;99770.48;432754;1270;111625;-43
2022/03/14 16:42:04;;;;;;;47.20;25.70;;;;;;;10.05;29.47;99781.26;432480;1270;108994;-42
2022/03/14 16:52:12;;;;;;;78.40;32.30;;;;;;;9.56;29.91;99789.14;432725;1270;98042;-41
2022/03/14 17:02:20;;;;;;;115.50;50.80;;;;;;;9.06;30.29;99802.83;432370;1270;109033;-42
2022/03/14 17:12:27;;;;;;;117.70;56.90;;;;;;;8.60;30.38;99817.73;432732;1271;99260;-41
2022/03/14 17:22:35;;;;;;;86.50;44.30;;;;;;;8.13;30.68;99831.58;432513;1271;112966;-42
2022/03/14 17:32:42;;;;;;;63.90;31.50;;;;;;;7.70;30.86;99839.81;432395;1271;108828;-41
2022/03/14 17:42:50;;;;;;;71.60;32.50;;;;;;;7.19;31.28;99844.20;432606;1271;99286;-41
2022/03/14 17:52:58;;;;;;;116.40;41.60;;;;;;;6.63;31.83;99842.30;432452;1270;112443;-42
2022/03/14 18:13:13;;;;;;;102.80;46.30;;;;;;;5.48;32.89;99893.27;432747;1270;99174;-41
2022/03/14 18:23:20;;;;;;;131.40;55.30;;;;;;;5.13;33.28;99900.16;432657;1271;112721;-43
2022/03/14 18:43:35;;;;;;;111.30;47.90;;;;;;;5.10;33.82;99895.31;432549;1270;98117;-41
2022/03/14 18:53:43;;;;;;;101.70;43.90;;;;;;;5.30;33.74;99897.18;432418;1270;112434;-42
2022/03/14 19:03:50;;;;;;;73.10;35.30;;;;;;;5.48;33.71;99899.89;432507;1270;108814;-43
2022/03/14 19:13:59;;;;;;;66.80;32.00;;;;;;;5.70;33.69;99901.17;432501;1270;98039;-41
2022/03/14 19:24:06;;;;;;;89.60;39.30;;;;;;;5.88;33.61;99909.90;432502;1270;112551;-41
2022/03/14 19:34:13;;;;;;;74.40;34.30;;;;;;;5.96;33.52;99912.20;432450;1270;108985;-41
2022/03/14 19:44:18;;;;;;;76.40;35.50;;;;;;;5.88;33.46;99913.44;432389;1270;98420;-41
2022/03/14 19:54:27;;;;;;;61.10;28.50;;;;;;;5.74;33.67;99910.71;432645;1270;99247;-42
2022/03/14 20:04:34;;;;;;;66.70;27.30;;;;;;;5.72;33.86;99918.17;432525;1270;108715;-41
2022/03/14 20:14:46;;;;;;;51.10;25.60;;;;;;;5.76;33.96;99921.17;432555;1270;99248;-42
2022/03/14 20:24:54;;;;;;;53.80;26.40;;;;;;;5.84;34.22;99922.07;432560;1270;112823;-40
2022/03/14 20:35:00;;;;;;;48.30;21.40;;;;;;;5.89;34.17;99924.83;432454;1270;108875;-43
2022/03/14 20:45:09;;;;;;;58.90;27.70;;;;;;;5.90;34.12;99928.77;432673;1270;99247;-40
2022/03/14 20:55:16;;;;;;;63.30;29.00;;;;;;;5.78;34.34;99930.73;432686;1270;112991;-41
2022/03/14 21:15:31;;;;;;;52.40;24.40;;;;;;;5.72;34.72;99938.02;432676;1270;99242;-43
2022/03/14 21:25:39;;;;;;;56.10;26.20;;;;;;;5.65;34.91;99935.80;432565;1270;112716;-40
2022/03/14 21:35:47;;;;;;;61.00;31.10;;;;;;;5.63;35.14;99935.05;432528;1270;108905;-42
2022/03/14 21:45:54;;;;;;;63.60;31.20;;;;;;;5.56;35.37;99944.22;432495;1269;98318;-41
2022/03/14 22:06:10;;;;;;;61.00;28.20;;;;;;;5.35;35.69;99947.66;432414;1271;108694;-41
2022/03/14 22:16:16;;;;;;;59.50;28.80;;;;;;;5.23;35.89;99948.80;432536;1270;99259;-43
2022/03/14 22:36:35;;;;;;;64.70;31.00;;;;;;;5.04;36.23;99960.79;432478;1270;108765;-43
2022/03/14 22:46:43;;;;;;;49.20;25.10;;;;;;;4.96;36.47;99963.48;432659;1270;98047;-41
2022/03/14 23:06:56;;;;;;;57.20;27.00;;;;;;;4.74;36.98;99963.40;432543;1269;109119;-42
2022/03/14 23:17:05;;;;;;;59.20;27.90;;;;;;;4.62;37.24;99959.44;432537;1270;99728;-41
2022/03/14 23:27:12;;;;;;;53.90;26.00;;;;;;;4.51;37.56;99960.38;432516;1270;112562;-42
2022/03/14 23:37:19;;;;;;;53.40;25.50;;;;;;;4.43;37.98;99966.65;432588;1270;108235;-41
2022/03/14 23:47:27;;;;;;;48.30;23.70;;;;;;;4.49;38.38;99967.55;432488;1269;99258;-41
2022/03/14 23:57:34;;;;;;;53.80;22.50;;;;;;;4.54;38.50;99972.08;432617;1270;112444;-41
